Time;durP1;ratioP1;P1;durP2;ratioP2;P2;SDS_P1;SDS_P2;PMS_P1;PMS_P2;Temp;Humidity;BMP_temperature;BMP_pressure;BME280_temperature;BME280_humidity;BME280_pressure;Samples;Min_cycle;Max_cycle;Signal;HPM_P1;HPM_P2
2022/12/01 00:00:16;;;;;;;;;14.00;10.67;;;;;21.01;37.67;101980.28;5045148;28;57079;-53
2022/12/01 00:02:41;;;;;;;;;10.50;9.25;;;;;20.99;37.66;101986.53;5038218;28;45303;-52
2022/12/01 00:05:07;;;;;;;;;12.67;10.00;;;;;20.97;37.75;101983.97;5037552;28;53714;-51
2022/12/01 00:07:32;;;;;;;;;15.00;11.00;;;;;20.97;38.00;101983.97;5044620;28;45976;-52
2022/12/01 00:12:42;;;;;;;;;12.75;10.50;;;;;20.95;37.85;101982.28;5039195;28;45331;-54
2022/12/01 00:15:09;;;;;;;;;17.25;14.25;;;;;20.94;37.75;101986.72;5047741;28;44843;-52
2022/12/01 00:17:35;;;;;;;;;13.00;12.00;;;;;20.93;37.97;101976.25;5053440;28;45389;-55
2022/12/01 00:20:01;;;;;;;;;17.00;14.25;;;;;20.91;37.97;101975.44;5040905;28;45370;-54
2022/12/01 00:22:26;;;;;;;;;17.00;13.75;;;;;20.88;37.86;101970.28;5053815;28;44793;-53
2022/12/01 00:24:51;;;;;;;;;18.00;13.75;;;;;20.87;37.99;101977.34;5055584;28;45653;-50
2022/12/01 00:27:16;;;;;;;;;13.25;13.00;;;;;20.85;37.57;101979.19;5058241;28;45297;-52
2022/12/01 00:29:42;;;;;;;;;12.50;12.25;;;;;20.85;37.96;101979.19;5048883;28;45259;-49
2022/12/01 00:32:07;;;;;;;;;13.00;11.50;;;;;20.85;37.56;101984.44;5053919;28;45311;-45
2022/12/01 00:34:33;;;;;;;;;15.50;14.75;;;;;20.85;37.67;101979.19;5059099;28;45511;-50
2022/12/01 00:36:59;;;;;;;;;12.75;12.75;;;;;20.83;37.81;101978.38;5044167;28;46308;-55
2022/12/01 00:39:24;;;;;;;;;17.00;12.25;;;;;20.82;37.67;101988.06;5041783;28;45291;-47
2022/12/01 00:41:50;;;;;;;;;13.50;13.50;;;;;20.79;37.31;101988.19;5046789;28;45294;-54
2022/12/01 00:44:15;;;;;;;;;12.00;11.25;;;;;20.75;37.63;101978.66;5043635;28;45279;-53
2022/12/01 00:46:40;;;;;;;;;15.00;12.25;;;;;20.77;37.78;101982.09;5037860;28;46233;-53
2022/12/01 00:49:06;;;;;;;;;15.33;12.00;;;;;20.77;37.74;101983.88;5039337;28;53868;-51
2022/12/01 00:51:31;;;;;;;;;13.00;11.00;;;;;20.75;37.41;101978.66;5058664;28;45269;-51
2022/12/01 00:53:57;;;;;;;;;14.00;13.25;;;;;20.76;37.64;101980.38;5045684;28;45378;-56
2022/12/01 00:56:22;;;;;;;;;20.25;13.75;;;;;20.76;37.71;101979.53;5049455;28;47287;-51
2022/12/01 00:58:47;;;;;;;;;13.75;13.75;;;;;20.70;37.48;101976.16;5049732;28;45248;-54
2022/12/01 01:01:13;;;;;;;;;13.75;12.25;;;;;20.68;37.57;101967.47;5047376;28;45224;-54
2022/12/01 01:03:38;;;;;;;;;11.25;10.75;;;;;20.69;37.74;101974.44;5039450;28;45335;-52
2022/12/01 01:06:09;;;;;;;;;11.25;10.00;;;;;20.69;37.38;101978.88;5037637;28;46480;-53
2022/12/01 01:08:35;;;;;;;;;15.00;13.50;;;;;20.68;37.56;101979.78;5037876;28;45338;-47
2022/12/01 01:11:01;;;;;;;;;17.25;13.25;;;;;20.65;37.65;101979.91;5053484;28;45275;-44
2022/12/01 01:13:27;;;;;;;;;16.50;11.75;;;;;20.64;37.83;101976.41;5040308;28;45473;-50
2022/12/01 01:15:59;;;;;;;;;16.00;11.50;;;;;20.63;37.37;101973.81;5045275;28;46873;-48
2022/12/01 01:18:24;;;;;;;;;14.75;12.00;;;;;20.62;37.91;101972.09;5059193;28;45951;-53
2022/12/01 01:20:58;;;;;;;;;14.75;10.50;;;;;20.59;37.87;101973.09;5051863;28;45256;-50
2022/12/01 01:23:23;;;;;;;;;11.50;11.50;;;;;20.59;37.56;101980.97;5050032;28;45468;-53
2022/12/01 01:25:49;;;;;;;;;15.75;11.75;;;;;20.57;37.61;101974.06;5040702;28;46193;-55
2022/12/01 01:28:14;;;;;;;;;13.00;11.50;;;;;20.57;37.28;101979.34;5043899;28;45236;-49
2022/12/01 01:30:39;;;;;;;;;14.25;13.25;;;;;20.55;37.40;101982.03;5040190;28;45338;-52
2022/12/01 01:33:04;;;;;;;;;17.33;15.67;;;;;20.54;37.60;101980.31;5061967;28;46965;-49
2022/12/01 01:35:30;;;;;;;;;16.00;14.25;;;;;20.54;37.63;101982.94;5043817;28;45272;-49
2022/12/01 01:37:55;;;;;;;;;14.25;12.50;;;;;20.52;37.61;101980.34;5037564;28;45290;-46
2022/12/01 01:40:21;;;;;;;;;16.25;14.00;;;;;20.52;37.74;101984.78;5037319;28;45291;-52
2022/12/01 01:42:46;;;;;;;;;15.50;13.75;;;;;20.50;37.66;101994.50;5037008;28;45240;-49
2022/12/01 01:45:27;;;;;;;;;14.50;13.00;;;;;20.51;37.62;101996.22;5035796;28;46059;-50
2022/12/01 01:47:57;;;;;;;;;10.25;10.25;;;;;20.49;37.67;101992.78;5037161;28;45429;-50
2022/12/01 01:50:27;;;;;;;;;18.00;13.75;;;;;20.50;37.31;102007.66;5038044;28;45284;-49
2022/12/01 01:53:03;;;;;;;;;13.25;13.25;;;;;20.48;37.73;102017.38;5053153;28;45405;-51
2022/12/01 01:55:32;;;;;;;;;16.75;13.00;;;;;20.47;37.27;102011.28;5048857;28;45573;-53
2022/12/01 01:57:58;;;;;;;;;13.50;11.25;;;;;20.45;37.54;102007.00;5042058;28;45873;-55
2022/12/01 02:00:23;;;;;;;;;13.00;13.00;;;;;20.43;37.16;102003.53;5055926;28;45463;-52
2022/12/01 02:02:50;;;;;;;;;16.50;13.50;;;;;20.43;37.08;102004.41;5060312;28;44884;-51
2022/12/01 02:05:21;;;;;;;;;13.00;13.00;;;;;20.42;37.61;101996.56;5043670;28;46163;-54
2022/12/01 02:07:47;;;;;;;;;13.25;12.75;;;;;20.43;37.62;101998.28;5040826;28;45817;-54
2022/12/01 02:10:14;;;;;;;;;11.25;11.25;;;;;20.39;37.47;101997.53;5040161;28;45179;-53
2022/12/01 02:12:51;;;;;;;;;18.00;14.75;;;;;20.41;37.41;102000.09;5040360;28;45347;-49
2022/12/01 02:15:35;;;;;;;;;15.50;12.50;;;;;20.41;37.34;101994.84;5038982;28;46907;-50
2022/12/01 02:18:28;;;;;;;;;16.00;13.50;;;;;20.40;37.52;101999.22;5038789;28;45876;-52
2022/12/01 02:21:11;;;;;;;;;17.00;14.25;;;;;20.38;37.31;101991.41;5039378;28;45384;-51
2022/12/01 02:23:43;;;;;;;;;16.00;13.75;;;;;20.37;37.58;101992.31;5039593;28;45514;-55
2022/12/01 02:26:38;;;;;;;;;15.25;13.50;;;;;20.36;37.18;101987.13;5038970;28;45429;-52
2022/12/01 02:29:18;;;;;;;;;18.00;14.50;;;;;20.34;37.48;101995.03;5038674;28;45333;-53
2022/12/01 02:32:09;;;;;;;;;13.75;12.50;;;;;20.34;37.21;101989.78;5042273;28;45320;-53
2022/12/01 02:34:41;;;;;;;;;11.00;10.75;;;;;20.33;37.63;101993.34;5039414;28;45714;-52
2022/12/01 02:37:16;;;;;;;;;12.00;11.00;;;;;20.30;37.29;101996.09;5060986;28;47857;-52
2022/12/01 02:39:54;;;;;;;;;16.00;13.50;;;;;20.31;37.01;101982.00;5053334;28;45832;-52
2022/12/01 02:42:48;;;;;;;;;15.00;11.75;;;;;20.27;37.31;101983.03;5043801;28;45329;-54
2022/12/01 02:45:19;;;;;;;;;15.00;11.50;;;;;20.29;37.50;101982.97;5059836;28;45272;-48
2022/12/01 02:47:46;;;;;;;;;15.75;13.25;;;;;20.28;37.16;101986.53;5043905;28;46949;-53
2022/12/01 02:50:12;;;;;;;;;15.25;13.50;;;;;20.28;37.62;101989.16;5055475;28;46096;-51
2022/12/01 02:52:39;;;;;;;;;17.00;14.00;;;;;20.27;37.01;101979.56;5038740;28;45456;-50
2022/12/01 02:55:05;;;;;;;;;12.00;9.25;;;;;20.27;37.24;101990.06;5038810;28;45491;-52
2022/12/01 02:57:30;;;;;;;;;17.50;15.00;;;;;20.26;37.30;101989.19;5038312;28;45903;-51
2022/12/01 02:59:57;;;;;;;;;16.25;14.00;;;;;20.24;37.22;101984.00;5038117;28;45337;-53
2022/12/01 03:03:11;;;;;;;;;14.25;13.25;;;;;20.25;37.50;101984.84;5038722;28;45231;-54
2022/12/01 03:05:44;;;;;;;;;13.50;12.00;;;;;20.24;37.33;101977.88;5038026;28;45423;-55
2022/12/01 03:08:30;;;;;;;;;15.50;13.00;;;;;20.21;37.22;101973.56;5040606;28;46121;-54
2022/12/01 03:10:57;;;;;;;;;12.75;12.75;;;;;20.21;37.72;101978.84;5041369;28;45277;-47
2022/12/01 03:13:39;;;;;;;;;16.00;14.75;;;;;20.21;37.32;101980.63;5057391;27;44740;-52
2022/12/01 03:16:40;;;;;;;;;13.50;13.00;;;;;20.20;37.23;101974.50;5038728;28;45247;-52
2022/12/01 03:19:30;;;;;;;;;12.75;12.75;;;;;20.19;37.61;101971.91;5038136;28;46231;-51
2022/12/01 03:22:04;;;;;;;;;13.50;13.50;;;;;20.18;37.50;101964.94;5038261;28;45523;-47
2022/12/01 03:24:31;;;;;;;;;15.00;12.50;;;;;20.18;37.67;101972.84;5038125;28;45339;-49
2022/12/01 03:26:59;;;;;;;;;13.50;11.25;;;;;20.15;37.66;101963.28;5039737;28;45335;-52
2022/12/01 03:29:30;;;;;;;;;16.00;12.75;;;;;20.16;37.28;101966.75;5044930;28;45215;-49
2022/12/01 03:32:04;;;;;;;;;14.50;14.00;;;;;20.16;37.73;101970.28;5054066;28;45742;-48
2022/12/01 03:34:35;;;;;;;;;17.50;12.75;;;;;20.16;37.20;101972.91;5049312;28;45207;-48
2022/12/01 03:37:06;;;;;;;;;13.25;13.25;;;;;20.15;37.52;101972.94;5047683;28;45531;-43
2022/12/01 03:39:34;;;;;;;;;17.25;14.25;;;;;20.13;37.41;101972.13;5037814;28;46460;-48
2022/12/01 03:42:12;;;;;;;;;14.50;14.25;;;;;20.12;37.44;101980.97;5037897;28;45468;-47
2022/12/01 03:44:46;;;;;;;;;14.25;12.75;;;;;20.12;37.33;101981.81;5038086;28;45345;-43
2022/12/01 03:47:16;;;;;;;;;18.00;12.25;;;;;20.12;37.30;101978.34;5038374;28;45322;-46
2022/12/01 03:49:44;;;;;;;;;15.75;13.75;;;;;20.12;37.25;101980.97;5048873;28;46983;-53
2022/12/01 03:52:17;;;;;;;;;15.00;14.00;;;;;20.10;37.33;101985.41;5065370;28;45481;-46
2022/12/01 03:54:54;;;;;;;;;15.75;14.00;;;;;20.10;37.45;101991.53;5063370;27;44790;-53
2022/12/01 03:57:35;;;;;;;;;18.25;13.00;;;;;20.09;37.29;101981.91;5038483;28;45354;-46
2022/12/01 04:00:01;;;;;;;;;14.25;12.00;;;;;20.08;37.42;101986.31;5037349;28;46119;-53
2022/12/01 04:02:27;;;;;;;;;19.00;14.75;;;;;20.10;37.17;101982.78;5037565;28;45259;-54
2022/12/01 04:04:53;;;;;;;;;13.50;13.00;;;;;20.08;37.29;101978.44;5037456;28;45380;-53
2022/12/01 04:07:20;;;;;;;;;15.25;11.50;;;;;20.06;37.44;101974.97;5037485;28;45795;-52
2022/12/01 04:09:45;;;;;;;;;12.50;11.25;;;;;20.06;37.32;101974.97;5037342;28;46189;-51
2022/12/01 04:12:28;;;;;;;;;14.50;13.50;;;;;20.06;37.27;101961.81;5036781;28;56141;-49
2022/12/01 04:14:54;;;;;;;;;13.75;12.75;;;;;20.03;37.62;101959.28;5040318;28;45703;-53
2022/12/01 04:17:20;;;;;;;;;15.75;14.00;;;;;20.04;37.41;101958.38;5038856;28;45299;-48
2022/12/01 04:19:45;;;;;;;;;19.50;13.00;;;;;20.04;37.09;101961.00;5036932;28;46022;-47
2022/12/01 04:22:10;;;;;;;;;16.67;14.33;;;;;20.04;37.65;101966.28;5036370;28;61850;-51
2022/12/01 04:24:36;;;;;;;;;12.75;11.00;;;;;20.03;36.98;101969.81;5036658;28;50326;-52
2022/12/01 04:27:01;;;;;;;;;13.25;12.25;;;;;20.02;37.14;101968.09;5037757;28;45467;-54
2022/12/01 04:29:27;;;;;;;;;15.00;12.00;;;;;20.00;37.34;101959.44;5038300;28;59369;-50
2022/12/01 04:31:52;;;;;;;;;17.25;15.00;;;;;20.01;37.32;101966.38;5059853;28;44781;-52
2022/12/01 04:34:17;;;;;;;;;13.00;13.00;;;;;19.98;37.55;101966.50;5040891;28;45397;-51
2022/12/01 04:36:42;;;;;;;;;15.00;13.00;;;;;19.99;37.03;101970.88;5043894;28;48164;-48
2022/12/01 04:39:08;;;;;;;;;15.75;13.50;;;;;19.98;37.58;101971.78;5041916;28;46527;-51
2022/12/01 04:41:33;;;;;;;;;14.50;12.75;;;;;19.99;37.16;101973.50;5041644;28;45314;-51
2022/12/01 04:43:58;;;;;;;;;15.33;11.33;;;;;19.99;37.23;101977.88;5041811;28;52931;-52
2022/12/01 04:46:24;;;;;;;;;16.00;13.25;;;;;19.99;37.50;101972.63;5041645;28;45285;-52
2022/12/01 04:48:49;;;;;;;;;14.25;13.75;;;;;19.97;37.67;101970.06;5037149;28;46783;-51
2022/12/01 04:51:15;;;;;;;;;16.50;12.00;;;;;19.95;37.64;101969.25;5036624;28;45432;-50
2022/12/01 04:53:40;;;;;;;;;17.50;16.00;;;;;19.93;37.42;101973.69;5052163;28;45379;-54
2022/12/01 04:56:06;;;;;;;;;12.75;12.50;;;;;19.91;37.13;101971.13;5036875;28;45612;-53
2022/12/01 04:58:33;;;;;;;;;20.75;17.50;;;;;19.87;37.00;101969.50;5037282;28;46183;-49
2022/12/01 05:01:03;;;;;;;;;17.25;14.50;;;;;19.88;37.54;101973.00;5048510;28;45878;-53
2022/12/01 05:03:29;;;;;;;;;17.00;15.50;;;;;19.86;37.10;101972.19;5054571;28;45294;-52
2022/12/01 05:06:12;;;;;;;;;22.00;17.75;;;;;19.85;37.21;101978.34;5039020;28;45323;-49
2022/12/01 05:08:38;;;;;;;;;16.75;16.50;;;;;19.83;37.56;101972.25;5036261;28;46634;-54
2022/12/01 05:11:06;;;;;;;;;17.50;17.50;;;;;19.82;36.98;101976.69;5036324;28;45412;-53
2022/12/01 05:13:31;;;;;;;;;16.75;15.75;;;;;19.81;37.34;101974.06;5036148;28;45376;-51
2022/12/01 05:16:11;;;;;;;;;17.25;16.50;;;;;19.81;37.58;101967.06;5036983;28;45341;-53
2022/12/01 05:18:37;;;;;;;;;14.50;14.25;;;;;19.82;37.37;101978.44;5036196;28;46722;-53
2022/12/01 05:21:04;;;;;;;;;15.00;14.00;;;;;19.82;37.53;101973.16;5036370;28;45915;-49
2022/12/01 05:23:32;;;;;;;;;14.75;14.75;;;;;19.80;37.29;101974.97;5038187;28;45343;-52
2022/12/01 05:25:58;;;;;;;;;18.00;15.50;;;;;19.82;37.53;101981.06;5053306;28;45595;-50
2022/12/01 05:28:25;;;;;;;;;14.75;13.75;;;;;19.82;37.61;101975.81;5072487;28;45954;-51
2022/12/01 05:30:52;;;;;;;;;18.25;14.50;;;;;19.81;37.50;101969.69;5036727;28;45909;-53
2022/12/01 05:33:17;;;;;;;;;14.50;12.00;;;;;19.81;37.37;101976.72;5035390;28;45276;-53
2022/12/01 05:35:43;;;;;;;;;16.75;12.75;;;;;19.82;37.19;101975.81;5036944;28;45560;-49
2022/12/01 05:38:08;;;;;;;;;17.00;14.50;;;;;19.81;37.28;101972.31;5036388;28;47036;-54
2022/12/01 05:40:35;;;;;;;;;20.50;16.00;;;;;19.79;37.32;101966.25;5036624;28;45372;-51
2022/12/01 05:43:01;;;;;;;;;16.50;13.25;;;;;19.82;37.22;101983.69;5037338;28;45346;-54
2022/12/01 05:45:26;;;;;;;;;16.00;13.25;;;;;19.81;37.53;101981.97;5060620;28;44991;-52
2022/12/01 05:47:56;;;;;;;;;19.75;15.25;;;;;19.79;37.79;101974.13;5045398;27;46052;-53
2022/12/01 05:50:22;;;;;;;;;19.00;14.25;;;;;19.80;37.04;101980.25;5049118;28;45278;-54
2022/12/01 05:52:47;;;;;;;;;19.00;16.00;;;;;19.79;37.20;101974.13;5036601;28;45338;-51
2022/12/01 05:55:13;;;;;;;;;13.50;12.75;;;;;19.78;37.01;101977.69;5045451;28;45370;-51
2022/12/01 05:57:38;;;;;;;;;14.25;13.00;;;;;19.78;37.26;101986.44;5042509;28;45784;-51
2022/12/01 06:00:04;;;;;;;;;17.00;12.67;;;;;19.76;37.28;101980.38;5035430;28;59633;-48
2022/12/01 06:02:30;;;;;;;;;15.75;12.25;;;;;19.77;37.01;101984.72;5036103;28;45269;-54
2022/12/01 06:04:55;;;;;;;;;13.25;13.25;;;;;19.77;37.33;101975.97;5036115;28;45605;-47
2022/12/01 06:07:24;;;;;;;;;16.00;13.50;;;;;19.77;37.04;101976.84;5037800;28;45445;-51
2022/12/01 06:09:49;;;;;;;;;17.00;14.00;;;;;19.76;37.45;101967.22;5035942;28;45330;-52
2022/12/01 06:12:14;;;;;;;;;13.75;13.25;;;;;19.75;37.50;101967.25;5035927;28;45513;-49
2022/12/01 06:14:40;;;;;;;;;16.75;14.75;;;;;19.73;37.45;101972.56;5037822;28;45312;-50
2022/12/01 06:17:05;;;;;;;;;16.75;15.00;;;;;19.75;37.52;101981.28;5038764;28;46795;-49
2022/12/01 06:19:30;;;;;;;;;14.50;13.75;;;;;19.75;37.00;101976.03;5043239;28;45349;-52
2022/12/01 06:21:56;;;;;;;;;15.33;14.33;;;;;19.75;37.52;101980.41;5061970;28;52941;-51
2022/12/01 06:24:22;;;;;;;;;15.00;12.50;;;;;19.74;37.12;101973.41;5056697;28;45433;-50
2022/12/01 06:26:48;;;;;;;;;14.00;12.00;;;;;19.73;37.15;101969.94;5041775;28;46478;-54
2022/12/01 06:29:13;;;;;;;;;22.00;14.75;;;;;19.73;37.45;101982.25;5042307;28;45380;-50
2022/12/01 06:31:38;;;;;;;;;13.00;12.50;;;;;19.72;36.97;101989.28;5038096;28;45432;-51
2022/12/01 06:34:04;;;;;;;;;14.25;14.25;;;;;19.72;36.90;101985.78;5036836;28;45418;-52
2022/12/01 06:36:29;;;;;;;;;17.25;12.25;;;;;19.72;37.56;101981.38;5035719;28;45392;-54
2022/12/01 06:38:54;;;;;;;;;19.25;16.00;;;;;19.72;37.41;101993.69;5035352;28;45322;-54
2022/12/01 06:41:20;;;;;;;;;12.50;12.50;;;;;19.71;37.31;101986.69;5038657;28;45268;-48
2022/12/01 06:43:45;;;;;;;;;15.75;12.00;;;;;19.70;37.15;101993.72;5038791;28;45573;-52
2022/12/01 06:46:10;;;;;;;;;15.67;14.67;;;;;19.69;37.31;101997.25;5038087;28;59256;-54
2022/12/01 06:48:36;;;;;;;;;15.25;12.75;;;;;19.69;37.43;101989.38;5038994;28;45799;-50
2022/12/01 06:51:01;;;;;;;;;13.75;13.75;;;;;19.69;37.34;101997.25;5039095;28;45946;-51
2022/12/01 06:53:28;;;;;;;;;14.50;9.00;;;;;19.68;36.77;101999.94;5038943;28;45755;-54
2022/12/01 06:55:58;;;;;;;;;14.00;12.75;;;;;19.67;37.19;101996.47;5038666;28;46414;-50
2022/12/01 06:58:23;;;;;;;;;18.00;14.50;;;;;19.68;37.23;101989.44;5038793;28;45375;-56
2022/12/01 07:00:48;;;;;;;;;16.00;14.25;;;;;19.67;37.00;101996.47;5038429;28;53633;-47
2022/12/01 07:03:13;;;;;;;;;17.25;14.25;;;;;19.68;36.92;102007.84;5038635;28;51677;-50
2022/12/01 07:05:39;;;;;;;;;16.25;13.75;;;;;19.67;36.89;102012.25;5039302;28;45459;-50
2022/12/01 07:08:05;;;;;;;;;13.00;12.00;;;;;19.67;37.39;102011.38;5044016;28;54047;-49
2022/12/01 07:10:31;;;;;;;;;17.75;16.25;;;;;19.65;37.30;102008.81;5049586;28;45373;-51
2022/12/01 07:12:56;;;;;;;;;17.25;15.25;;;;;19.66;37.22;102012.28;5053749;28;45278;-53
2022/12/01 07:15:23;;;;;;;;;13.00;13.00;;;;;19.66;37.15;102021.06;5053217;28;45515;-47
2022/12/01 07:17:51;;;;;;;;;19.00;13.00;;;;;19.65;36.91;102027.22;5039207;28;46317;-50
2022/12/01 07:20:16;;;;;;;;;13.50;12.25;;;;;19.66;36.92;102017.53;5040452;28;45439;-53
2022/12/01 07:22:42;;;;;;;;;13.25;13.25;;;;;19.65;37.54;102031.59;5051717;28;45287;-53
2022/12/01 07:25:08;;;;;;;;;14.00;12.00;;;;;19.65;36.80;102026.34;5051149;28;47120;-51
2022/12/01 07:27:34;;;;;;;;;16.50;10.25;;;;;19.65;37.04;102036.84;5059806;28;45299;-51
2022/12/01 07:30:00;;;;;;;;;15.00;11.75;;;;;19.63;37.10;102035.13;5052693;28;45470;-49
2022/12/01 07:32:25;;;;;;;;;15.50;12.50;;;;;19.65;37.27;102042.13;5049472;28;45561;-45
2022/12/01 07:34:50;;;;;;;;;16.25;12.50;;;;;19.63;37.47;102039.56;5052148;28;47229;-54
2022/12/01 07:37:16;;;;;;;;;16.25;13.50;;;;;19.64;37.27;102046.53;5062185;28;44676;-48
2022/12/01 07:39:41;;;;;;;;;18.25;13.75;;;;;19.58;36.97;102034.44;5046504;28;45248;-48
2022/12/01 07:42:06;;;;;;;;;13.00;12.75;;;;;19.61;37.44;102049.25;5045483;28;45238;-50
2022/12/01 07:44:32;;;;;;;;;17.75;15.75;;;;;19.60;37.13;102047.53;5038664;28;45224;-52
2022/12/01 07:46:57;;;;;;;;;20.00;14.75;;;;;19.56;36.69;102053.81;5037853;28;45326;-50
2022/12/01 07:49:22;;;;;;;;;16.00;13.00;;;;;19.55;37.35;102060.81;5037501;28;56310;-52
2022/12/01 07:51:48;;;;;;;;;13.50;13.50;;;;;19.55;37.41;102059.97;5037562;28;45218;-52
2022/12/01 07:54:13;;;;;;;;;13.25;12.50;;;;;19.54;36.86;102060.88;5037362;28;46619;-49
2022/12/01 07:56:39;;;;;;;;;17.25;16.00;;;;;19.53;37.10;102061.78;5036613;28;45489;-52
2022/12/01 07:59:05;;;;;;;;;19.50;14.00;;;;;19.53;37.11;102064.44;5037542;28;45468;-49
2022/12/01 08:01:30;;;;;;;;;15.75;13.50;;;;;19.53;37.39;102070.53;5052151;28;46382;-49
2022/12/01 08:03:57;;;;;;;;;16.50;11.50;;;;;19.54;36.96;102074.88;5057744;28;47147;-50
2022/12/01 08:06:24;;;;;;;;;13.25;11.50;;;;;19.55;37.39;102083.66;5060873;28;45368;-47
2022/12/01 08:08:49;;;;;;;;;14.75;12.00;;;;;19.54;37.18;102079.28;5062254;28;45480;-49
2022/12/01 08:11:20;;;;;;;;;12.50;12.00;;;;;19.55;37.37;102079.22;5060816;28;45318;-47
2022/12/01 08:13:45;;;;;;;;;10.25;10.00;;;;;19.56;37.27;102085.38;5058610;28;45345;-52
2022/12/01 08:16:13;;;;;;;;;11.50;10.50;;;;;19.58;37.55;102084.41;5058579;28;45399;-53
2022/12/01 08:18:40;;;;;;;;;13.75;11.25;;;;;19.58;37.27;102091.41;5059409;28;45369;-50
2022/12/01 08:21:08;;;;;;;;;16.75;13.75;;;;;19.59;37.05;102096.66;5060598;28;45330;-47
2022/12/01 08:23:33;;;;;;;;;13.50;12.25;;;;;19.58;37.49;102088.78;5063883;28;46070;-50
2022/12/01 08:26:07;;;;;;;;;12.50;12.00;;;;;19.55;37.55;102095.00;5062645;28;45349;-51
2022/12/01 08:28:35;;;;;;;;;17.50;12.75;;;;;19.58;37.26;102094.06;5071556;28;45400;-50
2022/12/01 08:31:23;;;;;;;;;12.50;10.00;;;;;19.58;37.76;102083.53;5057698;28;45337;-49
2022/12/01 08:33:49;;;;;;;;;13.75;12.75;;;;;19.56;37.75;102094.09;5057503;28;46027;-50
2022/12/01 08:36:16;;;;;;;;;13.75;11.50;;;;;19.55;37.65;102099.44;5057005;28;45368;-45
2022/12/01 08:38:43;;;;;;;;;17.25;16.00;;;;;19.54;37.42;102100.34;5057917;28;45341;-51
2022/12/01 08:41:09;;;;;;;;;14.25;12.25;;;;;19.50;37.12;102096.06;5073743;28;45570;-49
2022/12/01 08:43:43;;;;;;;;;15.00;12.00;;;;;19.50;37.51;102091.69;5064391;28;46036;-49
2022/12/01 08:46:10;;;;;;;;;13.75;13.75;;;;;19.50;37.10;102093.44;5079143;28;45193;-45
2022/12/01 08:48:35;;;;;;;;;13.75;12.75;;;;;19.48;37.61;102088.22;5063713;28;45388;-47
2022/12/01 08:51:10;;;;;;;;;12.00;12.00;;;;;19.48;37.01;102088.22;5070955;28;45321;-49
2022/12/01 08:53:39;;;;;;;;;17.00;13.00;;;;;19.46;37.36;102084.78;5083150;28;46126;-45
2022/12/01 08:56:10;;;;;;;;;9.00;9.00;;;;;19.48;37.52;102088.22;5069428;28;45798;-47
2022/12/01 08:58:36;;;;;;;;;16.50;12.25;;;;;19.47;37.48;102092.63;5055959;28;45303;-48
2022/12/01 09:01:10;;;;;;;;;11.50;11.25;;;;;19.45;37.80;102088.31;5058452;28;45438;-45
2022/12/01 09:03:37;;;;;;;;;12.25;10.75;;;;;19.48;37.47;102101.38;5055792;28;45360;-49
2022/12/01 09:06:09;;;;;;;;;12.75;10.50;;;;;19.47;37.07;102092.63;5056863;28;45313;-47
2022/12/01 09:08:35;;;;;;;;;11.50;10.50;;;;;19.48;37.24;102098.75;5056934;28;45441;-46
2022/12/01 09:11:03;;;;;;;;;10.75;10.25;;;;;19.47;37.63;102103.13;5056796;28;45543;-50
2022/12/01 09:13:30;;;;;;;;;12.75;9.50;;;;;19.46;37.18;102093.53;5056399;28;45357;-49
2022/12/01 09:15:58;;;;;;;;;12.00;12.00;;;;;19.46;37.15;102096.16;5057149;28;45937;-47
2022/12/01 09:18:23;;;;;;;;;11.50;9.50;;;;;19.47;37.43;102097.03;5067863;28;45242;-46
2022/12/01 09:20:49;;;;;;;;;13.25;9.75;;;;;19.46;37.02;102097.94;5078183;28;44721;-46
2022/12/01 09:23:15;;;;;;;;;14.50;10.00;;;;;19.44;37.25;102095.38;5059378;28;47083;-46
2022/12/01 09:25:41;;;;;;;;;13.75;10.50;;;;;19.45;37.38;102094.47;5057739;28;45403;-47
2022/12/01 09:28:06;;;;;;;;;14.00;11.50;;;;;19.46;37.43;102096.16;5078610;28;44984;-49
2022/12/01 09:30:34;;;;;;;;;16.00;12.50;;;;;19.48;37.28;102090.88;5071249;27;45416;-47
2022/12/01 09:32:59;;;;;;;;;12.00;10.25;;;;;19.52;37.34;102094.25;5056771;28;47112;-45
2022/12/01 09:35:25;;;;;;;;;13.75;10.00;;;;;19.53;37.67;102090.72;5056157;28;45446;-48
2022/12/01 09:37:50;;;;;;;;;9.25;9.25;;;;;19.60;37.25;102086.97;5055967;28;45223;-45
2022/12/01 09:40:16;;;;;;;;;13.25;10.75;;;;;19.67;37.12;102092.91;5057070;28;45263;-50
2022/12/01 09:42:46;;;;;;;;;11.25;8.00;;;;;19.72;37.53;102099.75;5056750;28;46845;-46
2022/12/01 09:45:24;;;;;;;;;12.00;10.00;;;;;19.78;37.26;102102.19;5065704;28;45347;-47
2022/12/01 09:47:52;;;;;;;;;11.25;8.50;;;;;19.82;37.26;102097.69;5063637;28;45451;-46
2022/12/01 09:50:24;;;;;;;;;15.25;9.25;;;;;19.86;37.44;102101.09;5081466;28;45315;-49
2022/12/01 09:53:06;;;;;;;;;12.25;10.50;;;;;19.91;37.32;102100.06;5071629;28;46182;-50
2022/12/01 09:55:34;;;;;;;;;6.50;5.50;;;;;19.97;37.37;102096.38;5061339;28;45403;-48
2022/12/01 09:58:02;;;;;;;;;11.75;9.75;;;;;20.01;37.16;102103.22;5061271;28;45362;-47
2022/12/01 10:00:31;;;;;;;;;12.00;11.00;;;;;20.05;37.22;102101.38;5060078;28;45178;-45
2022/12/01 10:03:18;;;;;;;;;9.00;9.00;;;;;20.09;36.68;102102.97;5062124;28;47426;-47
2022/12/01 10:05:51;;;;;;;;;10.50;7.50;;;;;20.12;36.76;102104.66;5064879;28;45353;-49
2022/12/01 10:08:23;;;;;;;;;12.25;12.25;;;;;20.15;36.63;102101.91;5090578;28;45383;-50
2022/12/01 10:10:53;;;;;;;;;10.25;10.00;;;;;20.18;37.05;102099.19;5065556;28;45238;-46
2022/12/01 10:13:21;;;;;;;;;10.25;8.00;;;;;20.19;36.58;102085.97;5059392;28;45698;-48
2022/12/01 10:16:12;;;;;;;;;10.00;10.00;;;;;20.23;36.45;102092.84;5060010;28;45384;-48
2022/12/01 10:19:00;;;;;;;;;8.75;7.75;;;;;20.25;36.89;102087.53;5059517;28;45342;-45
2022/12/01 10:21:56;;;;;;;;;11.00;8.00;;;;;20.28;37.06;102095.31;5059427;28;45303;-47
2022/12/01 10:24:50;;;;;;;;;8.00;8.00;;;;;20.30;36.39;102093.50;5059181;28;46902;-46
2022/12/01 10:27:55;;;;;;;;;12.75;8.00;;;;;20.30;36.78;102088.25;5062988;28;45321;-49
2022/12/01 10:30:22;;;;;;;;;12.50;9.00;;;;;20.31;36.32;102087.31;5042613;28;45277;-47
2022/12/01 10:32:59;;;;;;;;;8.00;8.00;;;;;20.32;36.94;102091.69;5059697;28;45222;-45
2022/12/01 10:35:28;;;;;;;;;10.75;7.25;;;;;20.32;36.60;102085.53;5058852;28;47211;-50
2022/12/01 10:38:02;;;;;;;;;10.25;8.00;;;;;20.33;36.78;102082.00;5058976;28;45839;-46
2022/12/01 10:40:27;;;;;;;;;10.00;10.00;;;;;20.33;36.59;102082.00;5057454;28;45384;-46
2022/12/01 10:42:54;;;;;;;;;12.50;10.50;;;;;20.33;36.60;102080.25;5058981;28;45399;-47
2022/12/01 10:45:25;;;;;;;;;9.75;8.75;;;;;20.32;36.45;102075.00;5059054;28;46929;-46
2022/12/01 10:48:14;;;;;;;;;10.00;10.00;;;;;20.33;36.39;102084.63;5057543;28;45985;-48
2022/12/01 10:50:50;;;;;;;;;8.00;8.00;;;;;20.31;36.73;102074.16;5058952;28;45441;-50
2022/12/01 10:53:22;;;;;;;;;14.75;13.00;;;;;20.32;36.83;102067.09;5059446;28;45168;-45
2022/12/01 10:55:50;;;;;;;;;11.75;10.00;;;;;20.30;36.26;102066.28;5058784;28;45574;-46
2022/12/01 10:58:18;;;;;;;;;8.75;8.50;;;;;20.29;36.19;102065.44;5059660;28;45395;-48
2022/12/01 11:00:55;;;;;;;;;10.25;9.00;;;;;20.28;36.35;102057.63;5060731;28;45253;-48
2022/12/01 11:03:27;;;;;;;;;11.50;11.25;;;;;20.27;36.31;102061.16;5066731;28;45344;-48
2022/12/01 11:05:58;;;;;;;;;8.50;8.50;;;;;20.26;36.07;102062.06;5071974;28;46281;-49
2022/12/01 11:08:57;;;;;;;;;10.75;9.00;;;;;20.24;36.28;102056.84;5058927;28;45463;-47
2022/12/01 11:11:31;;;;;;;;;13.00;9.25;;;;;20.20;36.29;102048.19;5057342;28;45480;-46
2022/12/01 11:13:59;;;;;;;;;10.75;8.50;;;;;20.19;35.92;102057.00;5059919;28;45340;-48
2022/12/01 11:16:38;;;;;;;;;10.00;9.50;;;;;20.17;35.79;102052.72;5062420;28;46682;-47
2022/12/01 11:19:14;;;;;;;;;12.50;11.25;;;;;20.17;36.11;102055.34;5078007;28;45153;-48
2022/12/01 11:21:46;;;;;;;;;9.25;9.00;;;;;20.14;36.16;102050.19;5082639;28;44893;-49